ฮานอย, Viet Nam

11:57 AM ICT วัน กันยายน 29, 2016 (GMT +0700)
Doi Can Street | | Change Station

Elev 46 ft 21.04 °N, 105.81 °E | Updated 5 minutes ago

Clear
ท้องฟ้าแจ่มใส
93.9 ฟาเรนไฮน์
Feels Like 102 ฟาเรนไฮน์
N
0.2
ลม ความผันแปร ลม from ทางทิศตะวันออกเฉียงใต้
Gusts 0.9 mph

วันนี้
High -- | Low -- ฟาเรนไฮน์
--% Chance of Precip.
Yesterday
High -- | Low -- ฟาเรนไฮน์
Precip. -- นิ้ว
ความดัน 29.74 นิ้ว
ทัศนวิสัย -9999.0 ไมล์
เมฆ
ดัชนีความร้อน 102 ฟาเรนไฮน์
อุณหภูมิที่อากาศอาจจับตัวเป็นหยาดน้ำค้าง 72 ฟาเรนไฮน์
ความชื้น 49%
Rainfall 0.01 นิ้ว
Snow Depth Not available.
5:47 AM 5:46 PM
เดือนเสี้ยว, 3% visible
METAR VVNB 290430Z 34010KT CAVOK 34/19 Q1007 NOSIG
ความดัน 29.74 นิ้ว
ทัศนวิสัย -9999.0 ไมล์
เมฆ
ดัชนีความร้อน 102 ฟาเรนไฮน์
อุณหภูมิที่อากาศอาจจับตัวเป็นหยาดน้ำค้าง 72 ฟาเรนไฮน์
ความชื้น 49%
Rainfall 0.01 นิ้ว
Snow Depth Not available.
5:47 AM 5:46 PM
เดือนเสี้ยว, 3% visible
METAR VVNB 290430Z 34010KT CAVOK 34/19 Q1007 NOSIG

10-Day Weather Forecast

No radar image for this location.
×

Almanac

ดาราศาสตร์

Sep. 29, 2016 Rise Set
Actual Time
Civil Twilight
Nautical Twilight
Astronomical Twilight
Moon
Length Of Visible Light
ความยาวของวัน
Tomorrow will be .
, % of the Moon is Illuminated

Today's Extremes

Country Highs Country Lows

Community

WunderPhotos

Upload Photos

1,942,435 photos uploaded!

WunderBlog® & News

Nearby

Air Quality

  Air Quality AQ Index Pollutant
Not available.

Snow Depth

Station Depth Elevation

Earthquake Activity

City Distance Mag. Time & Date
Minimum magnitude displayed is 2.5.

Coastal Water Temperatures

สถานที่ อุณหภูมิ

Stations

Nearby Weather Stations

Station Location Temp ลมหนาว อุณหภูมิที่อากาศอาจจับตัวเป็นหยาดน้ำค้าง ความชื้น ลม Precip. Elev ปรับปรุงล่าสุด Type